Aérodrome :
LOGIN :

S'inscrire | Disclaimer

   EN    FR    IT 

 










Légende :    VFR   VFR Marginal   IFR   IFR Intensif   IFR Très Intensif
Visi : 
Plafond : 
>= 8 km
>= 3000ft
5 à 8 km
1000 à 3000 ft
1500m à 5 km
500 à 1000 ft
800 à 1500m
200 à 500 ft
< 800m
< 200 ft
Symboles :   Orages  Brouillard  Fortes neiges  Fortes précipitations  Vent > 20 kt
SIGMETs :   Divers  Orages  Givrage  Turbulence  Onde Orograph.  Cendres Volcan.






- Altitude de l'aérodrome : 183 ft
- Code IATA : HAJ


EDDV - Hanover/Langenhagen Int.

DERNIER METAR :
  • 150020Z 08012KT CAVOK 03/02 Q1006

METARs EXPIRÉS :
  • 142350Z 07012KT CAVOK 03/01 Q1006
  • 142320Z 08011KT CAVOK 03/01 Q1006
  • 142250Z 07010KT CAVOK 03/01 Q1006
  • 142220Z 07008KT CAVOK 02/01 Q1006
  • 142150Z 07010KT CAVOK 03/01 Q1007

TAF TAF EDDV
Valide du 15 à 00h jusqu'au 16 à 00h UTC


142300Z 1500/1524 08011KT CAVOK
TEMPO 1501/1505 BKN005
BECMG 1505/1507 OVC007
TEMPO 1507/1516 BKN012
PROB40
TEMPO 1508/1514 08015G25KT BKN015
BECMG 1516/1519 07004KT SCT015
TEMPO 1519/1524 2000 BR BKN003
PROB40
TEMPO 1520/1524 0500 FG OVC001



MET'MAP, la Météo Aéronautique d'un coup d'oeil ! - Copyright ORBIFLY Décembre 2007 - Disclaimer

ORBIFLY MET'MAP TEAM :

Programmation & Développement : Alexandra Zaïnal
Conception & Développement : Baudouin d'Aumeries
Co-Programmation & Développement : Marc-Olivier Méhu
Soutien technique & logistique : Manuel Goepfert

Contact : metmap@orbifly.com




SOURCES & CREDITS :

   NOAA